createdAt,value
2022-09-12T00:00:41.714Z,101157.53
2022-09-12T00:03:21.038Z,101162.34
2022-09-12T00:05:59.644Z,101159.84
2022-09-12T00:08:41.154Z,101150.00
2022-09-12T00:11:20.481Z,101154.66
2022-09-12T00:14:02.132Z,101145.97
2022-09-12T00:16:40.535Z,101144.16
2022-09-12T00:19:20.677Z,101140.97
2022-09-12T00:22:00.115Z,101145.06
2022-09-12T00:24:40.791Z,101143.09
2022-09-12T00:27:22.894Z,101143.94
2022-09-12T00:30:02.294Z,101135.25
2022-09-12T00:32:42.092Z,101138.22
2022-09-12T00:35:22.072Z,101140.03
2022-09-12T00:38:01.723Z,101133.34
2022-09-12T00:40:42.998Z,101132.66
2022-09-12T00:43:37.563Z,101128.50
2022-09-12T00:46:29.126Z,101128.66
2022-09-12T00:49:15.576Z,101130.31
2022-09-12T00:51:57.073Z,101129.78
2022-09-12T00:54:40.247Z,101123.63
2022-09-12T00:57:20.447Z,101131.63
2022-09-12T01:00:11.415Z,101136.41
2022-09-12T01:02:54.957Z,101136.56
2022-09-12T01:05:52.285Z,101133.22
2022-09-12T01:08:34.441Z,101127.34
2022-09-12T01:11:15.119Z,101126.84
2022-09-12T01:13:55.601Z,101130.50
2022-09-12T01:16:35.951Z,101124.31
2022-09-12T01:19:33.595Z,101125.47
2022-09-12T01:22:22.306Z,101119.31
2022-09-12T01:25:09.357Z,101124.75
2022-09-12T01:28:18.453Z,101117.75
2022-09-12T01:31:03.067Z,101116.91
2022-09-12T01:33:56.410Z,101113.56
2022-09-12T01:36:42.299Z,101121.03
2022-09-12T01:39:31.167Z,101116.72
2022-09-12T01:42:17.177Z,101105.38
2022-09-12T01:45:04.621Z,101109.34
2022-09-12T01:47:46.711Z,101109.50
2022-09-12T01:50:30.003Z,101103.44
2022-09-12T01:53:32.388Z,101100.78
2022-09-12T01:56:15.255Z,101090.44
2022-09-12T01:58:59.565Z,101089.91
2022-09-12T02:01:44.430Z,101087.25
2022-09-12T02:04:27.709Z,101088.09
2022-09-12T02:07:13.804Z,101087.25
2022-09-12T02:09:57.587Z,101087.56
2022-09-12T02:12:41.386Z,101075.38
2022-09-12T02:15:25.253Z,101083.69
2022-09-12T02:18:08.040Z,101083.84
2022-09-12T02:20:49.584Z,101083.00
2022-09-12T02:23:30.612Z,101078.63
2022-09-12T02:26:16.356Z,101081.44
2022-09-12T02:28:56.268Z,101079.09
2022-09-12T02:31:41.763Z,101077.28
2022-09-12T02:34:30.952Z,101078.41
2022-09-12T02:37:20.136Z,101077.72
2022-09-12T02:40:00.150Z,101077.19
2022-09-12T02:42:42.908Z,101083.50
2022-09-12T02:45:23.277Z,101075.69
2022-09-12T02:48:07.232Z,101059.03
2022-09-12T02:50:46.854Z,101068.13
2022-09-12T02:53:26.771Z,101061.13
2022-09-12T02:56:10.616Z,101055.53
2022-09-12T02:58:50.948Z,101059.59
2022-09-12T03:01:41.077Z,101058.88
2022-09-12T03:04:46.773Z,101055.53
2022-09-12T03:07:37.541Z,101053.88
2022-09-12T03:10:25.613Z,101053.19
2022-09-12T03:13:18.281Z,101051.50
2022-09-12T03:16:05.275Z,101054.47
2022-09-12T03:18:52.194Z,101057.00
2022-09-12T03:21:38.345Z,101044.53
2022-09-12T03:24:20.541Z,101050.13
2022-09-12T03:27:14.241Z,101051.41
2022-09-12T03:29:54.888Z,101042.13
2022-09-12T03:32:44.753Z,101049.44
2022-09-12T03:35:27.359Z,101050.41
2022-09-12T03:38:07.997Z,101055.06
2022-09-12T03:40:52.725Z,101049.75
2022-09-12T03:43:34.407Z,101050.72
2022-09-12T03:46:14.513Z,101048.22
2022-09-12T03:48:53.961Z,101053.69
2022-09-12T03:51:35.783Z,101050.34
2022-09-12T03:54:15.167Z,101055.97
2022-09-12T03:56:54.978Z,101054.56
2022-09-12T03:59:34.804Z,101057.53
2022-09-12T04:02:14.640Z,101056.31
2022-09-12T04:04:54.422Z,101059.66
2022-09-12T04:07:34.197Z,101054.50
2022-09-12T04:10:16.422Z,101055.47
2022-09-12T04:12:59.026Z,101066.13
2022-09-12T04:15:38.442Z,101060.41
2022-09-12T04:18:18.236Z,101066.72
2022-09-12T04:20:58.463Z,101065.16
2022-09-12T04:23:40.153Z,101067.00
2022-09-12T04:26:22.326Z,101063.66
2022-09-12T04:29:02.278Z,101059.00
2022-09-12T04:31:42.265Z,101061.66
2022-09-12T04:34:21.897Z,101057.34
2022-09-12T04:37:03.863Z,101066.03
2022-09-12T04:39:43.151Z,101058.31
2022-09-12T04:42:22.943Z,101064.78
2022-09-12T04:45:03.496Z,101057.78
2022-09-12T04:47:44.148Z,101057.78
2022-09-12T04:50:23.966Z,101058.91
2022-09-12T04:53:03.737Z,101064.25
2022-09-12T04:55:43.632Z,101061.72
2022-09-12T04:58:23.368Z,101064.25
2022-09-12T05:01:07.534Z,101067.06
2022-09-12T05:03:48.247Z,101060.19
2022-09-12T05:06:29.971Z,101062.88
2022-09-12T05:09:14.017Z,101067.19
2022-09-12T05:12:04.659Z,101067.34
2022-09-12T05:14:44.606Z,101061.34
2022-09-12T05:17:24.420Z,101061.19
2022-09-12T05:20:07.077Z,101057.53
2022-09-12T05:22:47.218Z,101055.88
2022-09-12T05:25:27.032Z,101054.88
2022-09-12T05:28:08.843Z,101051.94
2022-09-12T05:30:48.506Z,101051.94
2022-09-12T05:33:30.131Z,101051.25
2022-09-12T05:36:12.245Z,101051.09
2022-09-12T05:38:54.880Z,101046.31
2022-09-12T05:41:47.468Z,101039.69
2022-09-12T05:44:28.116Z,101041.22
2022-09-12T05:47:07.354Z,101033.97
2022-09-12T05:49:47.880Z,101029.31
2022-09-12T05:52:30.113Z,101028.19
2022-09-12T05:55:11.456Z,101027.88
2022-09-12T05:57:50.935Z,101026.59
2022-09-12T06:00:33.625Z,101020.97
2022-09-12T06:03:15.789Z,101014.38
2022-09-12T06:05:55.254Z,101020.91
2022-09-12T06:08:34.606Z,101017.94
2022-09-12T06:11:16.445Z,101016.66
2022-09-12T06:13:58.934Z,101008.25
2022-09-12T06:16:41.344Z,100997.97
2022-09-12T06:19:21.553Z,100989.66
2022-09-12T06:22:04.982Z,100984.47
2022-09-12T06:24:45.003Z,100979.34
2022-09-12T06:27:24.863Z,100971.41
2022-09-12T06:30:08.184Z,100955.00
2022-09-12T06:32:46.368Z,100950.19
2022-09-12T06:36:12.093Z,100932.44
2022-09-12T06:38:55.070Z,100816.56
2022-09-12T06:41:37.612Z,100799.97
2022-09-12T06:44:20.822Z,100777.16
2022-09-12T06:47:00.025Z,100740.75
2022-09-12T06:49:44.869Z,100722.59
2022-09-12T06:52:26.451Z,100702.13
2022-09-12T06:55:06.860Z,100689.00
2022-09-12T06:58:29.543Z,100667.13
2022-09-12T07:01:10.989Z,100655.97
2022-09-12T07:03:51.483Z,100647.47
2022-09-12T07:06:39.733Z,100629.78
2022-09-12T07:09:20.023Z,100623.72
2022-09-12T07:12:00.772Z,100610.00
2022-09-12T07:14:41.554Z,100591.78
2022-09-12T07:17:20.908Z,100587.88
2022-09-12T07:20:01.457Z,100585.47
2022-09-12T07:22:42.278Z,100588.75
2022-09-12T07:25:21.910Z,100582.50
2022-09-12T07:28:02.246Z,100591.63
2022-09-12T07:30:42.270Z,100588.88
2022-09-12T07:33:29.244Z,100590.81
2022-09-12T07:36:12.425Z,100596.56
2022-09-12T07:38:57.616Z,100611.16
2022-09-12T07:41:38.327Z,100608.69
2022-09-12T07:44:18.142Z,100622.84
2022-09-12T07:46:59.956Z,100635.03
2022-09-12T07:49:39.339Z,100635.41
2022-09-12T07:52:19.171Z,100637.47
2022-09-12T07:55:12.355Z,100647.53
2022-09-12T07:57:51.412Z,100682.38
2022-09-12T08:00:35.739Z,100713.94
2022-09-12T08:03:14.934Z,100737.44
2022-09-12T08:05:53.839Z,100767.16
2022-09-12T08:08:33.224Z,100803.94
2022-09-12T08:11:24.640Z,100834.06
2022-09-12T08:14:05.620Z,100861.53
2022-09-12T08:16:46.153Z,100891.81
2022-09-12T08:19:28.789Z,100982.19
2022-09-12T08:22:10.509Z,100997.19
2022-09-12T08:24:50.127Z,101024.09
2022-09-12T08:27:29.406Z,101028.09
2022-09-12T08:30:10.512Z,101048.63
2022-09-12T08:32:50.618Z,101061.63
2022-09-12T08:35:31.253Z,101070.31
2022-09-12T08:38:11.862Z,101073.81
2022-09-12T08:40:55.132Z,101076.47
2022-09-12T08:43:52.061Z,101080.63
2022-09-12T08:46:38.771Z,101088.25
2022-09-12T08:49:27.786Z,101098.34
2022-09-12T08:52:12.835Z,101124.69
2022-09-12T08:54:52.584Z,101105.94
2022-09-12T08:57:32.103Z,101127.56
2022-09-12T09:00:22.841Z,101136.06
2022-09-12T09:03:27.492Z,101147.06
2022-09-12T09:06:14.223Z,101152.66
2022-09-12T09:09:05.100Z,101149.22
2022-09-12T09:11:54.458Z,101137.59
2022-09-12T09:15:21.971Z,101131.78
2022-09-12T09:18:06.353Z,101152.78
2022-09-12T09:20:48.601Z,101157.13
2022-09-12T09:23:30.783Z,101164.41
2022-09-12T09:26:14.591Z,101156.06
2022-09-12T09:28:56.632Z,101148.31
2022-09-12T09:31:39.429Z,101164.78
2022-09-12T09:34:22.276Z,101166.59
2022-09-12T09:37:07.584Z,101157.63
2022-09-12T09:39:53.418Z,101166.28
2022-09-12T09:42:39.441Z,101157.50
2022-09-12T09:45:24.028Z,101155.44
2022-09-12T09:48:15.344Z,101154.81
2022-09-12T09:50:59.974Z,101156.38
2022-09-12T09:53:45.109Z,101155.84
2022-09-12T09:56:32.733Z,101155.03
2022-09-12T09:59:13.643Z,101150.53
2022-09-12T10:01:55.509Z,101145.28
2022-09-12T10:04:41.040Z,101140.97
2022-09-12T10:07:23.949Z,101137.50
2022-09-12T10:10:22.686Z,101149.91
2022-09-12T10:13:10.088Z,101158.34
2022-09-12T10:15:59.278Z,101150.81
2022-09-12T10:18:42.099Z,101150.66
2022-09-12T10:21:29.532Z,101154.03
2022-09-12T10:24:20.701Z,101150.84
2022-09-12T10:27:10.660Z,101156.34
2022-09-12T10:29:51.728Z,101156.09
2022-09-12T10:32:36.680Z,101154.00
2022-09-12T10:35:20.036Z,101149.78
2022-09-12T10:38:02.304Z,101152.69
2022-09-12T10:40:44.362Z,101148.03
2022-09-12T10:43:28.066Z,101149.69
2022-09-12T10:46:29.869Z,101143.44
2022-09-12T10:49:22.261Z,101153.25
2022-09-12T10:52:18.146Z,101154.75
2022-09-12T10:54:57.671Z,101149.97
2022-09-12T10:57:51.082Z,101153.03
2022-09-12T11:00:31.302Z,101148.00
2022-09-12T11:03:21.997Z,101145.66
2022-09-12T11:06:01.732Z,101150.44
2022-09-12T11:08:53.425Z,101147.41
2022-09-12T11:11:46.801Z,101146.25
2022-09-12T11:14:37.460Z,101143.03
2022-09-12T11:17:23.425Z,101140.88
2022-09-12T11:20:14.824Z,101140.03
2022-09-12T11:23:10.859Z,101126.19
2022-09-12T11:25:53.990Z,101121.78
2022-09-12T11:28:47.166Z,101119.66
2022-09-12T11:31:44.259Z,101127.25
2022-09-12T11:34:29.446Z,101121.88
2022-09-12T11:37:25.721Z,101120.75
2022-09-12T11:40:22.765Z,101105.72
2022-09-12T11:43:07.154Z,101112.41
2022-09-12T11:45:47.733Z,101114.59
2022-09-12T11:48:37.249Z,101121.41
2022-09-12T11:51:20.823Z,101110.31
2022-09-12T11:54:06.632Z,101110.00
2022-09-12T11:56:48.228Z,101102.56
2022-09-12T11:59:35.133Z,101099.47
2022-09-12T12:02:16.318Z,101108.00
2022-09-12T12:05:04.944Z,101108.91
2022-09-12T12:07:53.044Z,101107.75
2022-09-12T12:10:36.110Z,101107.25
2022-09-12T12:13:20.960Z,101100.06
2022-09-12T12:16:03.637Z,101105.78
2022-09-12T12:18:43.857Z,101093.09
2022-09-12T12:21:36.169Z,101092.44
2022-09-12T12:24:20.764Z,101098.06
2022-09-12T12:27:04.829Z,101093.31
2022-09-12T12:29:45.695Z,101097.25
2022-09-12T12:32:28.302Z,101089.84
2022-09-12T12:35:39.183Z,101084.56
2022-09-12T12:38:30.409Z,101097.28
2022-09-12T12:41:45.897Z,101087.47
2022-09-12T12:44:52.335Z,101078.88
2022-09-12T12:47:34.883Z,101070.38
2022-09-12T12:50:23.810Z,101076.81
2022-09-12T12:53:43.261Z,101081.69
2022-09-12T12:56:39.033Z,101084.22
2022-09-12T13:00:03.252Z,101071.72
2022-09-12T13:02:58.313Z,101062.03
2022-09-12T13:05:42.093Z,101059.41
2022-09-12T13:08:31.272Z,101057.28
2022-09-12T13:11:15.687Z,101058.56
2022-09-12T13:14:00.160Z,101052.44
2022-09-12T13:16:52.632Z,101054.16
2022-09-12T13:19:37.318Z,101054.53
2022-09-12T13:22:17.882Z,101061.47
2022-09-12T13:24:56.849Z,101048.69
2022-09-12T13:27:35.413Z,101039.56
2022-09-12T13:30:16.078Z,101037.94
2022-09-12T13:32:55.102Z,101034.00
2022-09-12T13:35:42.196Z,101032.97
2022-09-12T13:38:49.273Z,101030.22
2022-09-12T13:41:41.696Z,101023.00
2022-09-12T13:44:27.942Z,101013.34
2022-09-12T13:47:15.450Z,101020.84
2022-09-12T13:50:42.566Z,101011.16
2022-09-12T13:53:44.839Z,101002.03
2022-09-12T13:56:29.102Z,100989.63
2022-09-12T13:59:13.595Z,100991.91
2022-09-12T14:01:53.964Z,100984.13
2022-09-12T14:04:51.330Z,100988.75
2022-09-12T14:07:40.103Z,100984.25
2022-09-12T14:10:24.682Z,100974.34
2022-09-12T14:13:13.293Z,100968.44
2022-09-12T14:15:56.054Z,100976.00
2022-09-12T14:18:38.984Z,100969.41
2022-09-12T14:21:36.736Z,100963.84
2022-09-12T14:24:19.684Z,100965.59
2022-09-12T14:27:01.913Z,100961.22
2022-09-12T14:29:44.123Z,100955.53
2022-09-12T14:32:26.472Z,100959.63
2022-09-12T14:35:08.385Z,100954.56
2022-09-12T14:37:50.763Z,100951.81
2022-09-12T14:40:31.697Z,100948.06
2022-09-12T14:43:21.894Z,100954.44
2022-09-12T14:46:03.907Z,100950.56
2022-09-12T14:48:48.712Z,100938.25
2022-09-12T14:51:34.714Z,100938.59
2022-09-12T14:54:38.763Z,100933.53
2022-09-12T14:57:40.155Z,100946.69
2022-09-12T15:00:23.942Z,100943.31
2022-09-12T15:03:25.287Z,100941.97
2022-09-12T15:06:08.113Z,100947.09
2022-09-12T15:08:49.751Z,100941.31
2022-09-12T15:11:30.893Z,100934.69
2022-09-12T15:14:13.996Z,100928.81
2022-09-12T15:16:54.155Z,100937.78
2022-09-12T15:19:34.174Z,100925.84
2022-09-12T15:22:14.581Z,100928.22
2022-09-12T15:24:57.552Z,100924.47
2022-09-12T15:27:40.839Z,100920.94
2022-09-12T15:30:23.328Z,100916.66
2022-09-12T15:33:06.166Z,100913.63
2022-09-12T15:35:49.660Z,100910.91
2022-09-12T15:38:30.029Z,100911.22
2022-09-12T15:41:14.845Z,100910.91
2022-09-12T15:43:54.539Z,100908.78
2022-09-12T15:46:34.491Z,100904.44
2022-09-12T15:49:14.179Z,100910.75
2022-09-12T15:51:53.899Z,100899.53
2022-09-12T15:54:33.938Z,100897.94
2022-09-12T15:57:13.619Z,100897.53
2022-09-12T16:00:10.208Z,100891.56
2022-09-12T16:02:54.107Z,100881.34
2022-09-12T16:05:35.510Z,100889.50
2022-09-12T16:08:18.035Z,100886.41
2022-09-12T16:11:04.050Z,100886.88
2022-09-12T16:13:47.297Z,100883.91
2022-09-12T16:16:27.781Z,100877.66
2022-09-12T16:19:09.112Z,100877.50
2022-09-12T16:21:50.643Z,100878.75
2022-09-12T16:24:30.629Z,100873.34
2022-09-12T16:27:10.545Z,100872.19
2022-09-12T16:29:51.496Z,100871.53
2022-09-12T16:32:31.403Z,100862.00
2022-09-12T16:35:11.155Z,100860.47
2022-09-12T16:37:50.944Z,100853.59
2022-09-12T16:40:31.033Z,100853.84
2022-09-12T16:43:10.515Z,100851.88
2022-09-12T16:45:50.384Z,100858.59
2022-09-12T16:48:30.327Z,100839.47
2022-09-12T16:51:09.963Z,100833.22
2022-09-12T16:53:50.286Z,100832.44
2022-09-12T16:56:43.106Z,100827.44
2022-09-12T16:59:22.942Z,100817.88
2022-09-12T17:02:04.639Z,100812.53
2022-09-12T17:04:44.105Z,100818.38
2022-09-12T17:07:25.833Z,100819.25
2022-09-12T17:10:08.402Z,100811.59
2022-09-12T17:12:49.053Z,100812.25
2022-09-12T17:15:31.587Z,100808.56
2022-09-12T17:18:10.995Z,100798.66
2022-09-12T17:20:51.154Z,100799.91
2022-09-12T17:23:30.738Z,100794.78
2022-09-12T17:26:13.157Z,100798.75
2022-09-12T17:28:53.616Z,100797.78
2022-09-12T17:31:33.590Z,100785.34
2022-09-12T17:34:16.106Z,100781.81
2022-09-12T17:36:56.067Z,100783.09
2022-09-12T17:39:47.276Z,100775.84
2022-09-12T17:42:27.477Z,100776.88
2022-09-12T17:45:15.143Z,100776.09
2022-09-12T17:47:58.319Z,100769.44
2022-09-12T17:50:39.526Z,100777.34
2022-09-12T17:53:19.803Z,100777.75
2022-09-12T17:56:02.121Z,100781.25
2022-09-12T17:58:42.391Z,100773.19
2022-09-12T18:01:41.721Z,100773.16
2022-09-12T18:04:21.952Z,100771.72
2022-09-12T18:07:02.675Z,100767.75
2022-09-12T18:09:43.276Z,100770.66
2022-09-12T18:12:24.054Z,100759.44
2022-09-12T18:15:03.556Z,100761.09
2022-09-12T18:17:45.385Z,100776.41
2022-09-12T18:20:24.824Z,100776.13
2022-09-12T18:23:04.691Z,100772.41
2022-09-12T18:25:44.418Z,100771.34
2022-09-12T18:28:24.257Z,100771.56
2022-09-12T18:31:04.648Z,100765.94
2022-09-12T18:33:44.159Z,100763.03
2022-09-12T18:36:25.651Z,100758.44
2022-09-12T18:39:05.274Z,100759.06
2022-09-12T18:41:57.615Z,100758.19
2022-09-12T18:44:38.245Z,100748.44
2022-09-12T18:47:17.859Z,100752.94
2022-09-12T18:49:59.641Z,100752.72
2022-09-12T18:52:39.032Z,100744.63
2022-09-12T18:55:18.886Z,100746.22
2022-09-12T18:57:58.635Z,100741.03
2022-09-12T19:00:41.285Z,100743.69
2022-09-12T19:03:23.523Z,100742.81
2022-09-12T19:06:09.375Z,100745.16
2022-09-12T19:08:49.640Z,100736.09
2022-09-12T19:11:30.959Z,100735.59
2022-09-12T19:14:10.330Z,100733.50
2022-09-12T19:16:50.660Z,100728.91
2022-09-12T19:19:29.978Z,100718.13
2022-09-12T19:22:10.656Z,100726.50
2022-09-12T19:24:53.149Z,100720.50
2022-09-12T19:27:34.748Z,100720.88
2022-09-12T19:30:14.831Z,100713.19
2022-09-12T19:32:55.356Z,100715.59
2022-09-12T19:35:45.830Z,100716.63
2022-09-12T19:38:25.208Z,100696.97
2022-09-12T19:41:06.348Z,100692.38
2022-09-12T19:43:46.009Z,100695.06
2022-09-12T19:46:27.083Z,100699.13
2022-09-12T19:49:07.195Z,100696.19
2022-09-12T19:51:49.015Z,100697.59
2022-09-12T19:54:30.448Z,100695.56
2022-09-12T19:57:09.848Z,100694.00
2022-09-12T19:59:49.804Z,100690.31
2022-09-12T20:02:29.811Z,100688.28
2022-09-12T20:05:09.578Z,100685.41
2022-09-12T20:07:49.135Z,100688.28
2022-09-12T20:10:29.172Z,100684.56
2022-09-12T20:13:10.991Z,100677.91
2022-09-12T20:15:50.122Z,100679.56
2022-09-12T20:18:29.876Z,100666.34
2022-09-12T20:21:11.172Z,100667.66
2022-09-12T20:23:51.107Z,100676.25
2022-09-12T20:26:30.973Z,100679.09
2022-09-12T20:29:23.820Z,100668.69
2022-09-12T20:32:03.884Z,100660.38
2022-09-12T20:34:42.539Z,100654.56
2022-09-12T20:37:21.976Z,100658.28
2022-09-12T20:40:04.512Z,100660.13
2022-09-12T20:42:44.776Z,100655.78
2022-09-12T20:45:24.593Z,100653.09
2022-09-12T20:48:04.683Z,100648.50
2022-09-12T20:50:44.168Z,100645.44
2022-09-12T20:53:22.711Z,100637.78
2022-09-12T20:56:02.339Z,100640.47
2022-09-12T20:58:44.359Z,100638.72
2022-09-12T21:01:25.997Z,100633.16
2022-09-12T21:04:10.779Z,100627.56
2022-09-12T21:06:54.276Z,100624.88
2022-09-12T21:09:34.046Z,100611.84
2022-09-12T21:12:15.849Z,100614.28
2022-09-12T21:14:55.215Z,100604.00
2022-09-12T21:17:35.003Z,100595.72
2022-09-12T21:20:16.842Z,100587.88
2022-09-12T21:22:56.269Z,100588.84
2022-09-12T21:25:36.105Z,100583.50
2022-09-12T21:28:16.118Z,100581.72
2022-09-12T21:30:56.290Z,100585.88
2022-09-12T21:33:37.665Z,100586.06
2022-09-12T21:36:16.865Z,100585.88
2022-09-12T21:38:59.972Z,100575.09
2022-09-12T21:41:39.689Z,100571.78
2022-09-12T21:44:19.474Z,100571.78
2022-09-12T21:46:59.375Z,100573.06
2022-09-12T21:49:41.131Z,100572.03
2022-09-12T21:52:20.503Z,100577.00
2022-09-12T21:55:00.392Z,100566.84
2022-09-12T21:57:40.269Z,100568.72
2022-09-12T22:00:20.003Z,100566.66
2022-09-12T22:03:00.036Z,100566.03
2022-09-12T22:05:41.553Z,100561.06
2022-09-12T22:08:22.939Z,100572.13
2022-09-12T22:11:07.802Z,100570.47
2022-09-12T22:13:49.086Z,100564.03
2022-09-12T22:16:30.431Z,100557.28
2022-09-12T22:19:10.565Z,100558.81
2022-09-12T22:22:08.769Z,100548.53
2022-09-12T22:24:50.424Z,100542.34
2022-09-12T22:27:30.036Z,100539.22
2022-09-12T22:30:10.980Z,100538.38
2022-09-12T22:32:51.643Z,100525.16
2022-09-12T22:35:31.037Z,100529.88
2022-09-12T22:38:10.892Z,100531.94
2022-09-12T22:40:50.655Z,100521.59
2022-09-12T22:43:32.936Z,100529.00
2022-09-12T22:46:13.758Z,100532.69
2022-09-12T22:48:55.489Z,100528.38
2022-09-12T22:51:34.867Z,100514.34
2022-09-12T22:54:14.499Z,100505.00
2022-09-12T22:56:54.297Z,100514.44
2022-09-12T22:59:34.484Z,100513.78
2022-09-12T23:02:15.918Z,100517.31
2022-09-12T23:04:55.303Z,100501.22
2022-09-12T23:07:35.604Z,100507.81
2022-09-12T23:10:15.349Z,100509.41
2022-09-12T23:13:37.587Z,100501.38
2022-09-12T23:16:19.154Z,100496.19
2022-09-12T23:18:59.728Z,100485.69
2022-09-12T23:21:39.567Z,100478.53
2022-09-12T23:24:18.140Z,100473.81
2022-09-12T23:26:57.577Z,100471.72
2022-09-12T23:29:39.383Z,100477.06
2022-09-12T23:32:19.061Z,100468.84
2022-09-12T23:34:58.912Z,100465.28
2022-09-12T23:37:50.953Z,100466.56
2022-09-12T23:40:32.079Z,100469.44
2022-09-12T23:43:11.353Z,100469.63
2022-09-12T23:45:51.330Z,100471.81
2022-09-12T23:48:42.199Z,100471.00
2022-09-12T23:51:24.166Z,100465.56
2022-09-12T23:54:04.295Z,100467.41
2022-09-12T23:56:43.382Z,100467.41
2022-09-12T23:59:23.210Z,100459.19
